TimeCDT,TemperatureF,Dew PointF,Humidity,Sea Level PressureIn,VisibilityMPH,Wind Direction,Wind SpeedMPH,Gust SpeedMPH,PrecipitationIn,Events,Conditions,WindDirDegrees,DateUTC
12:15 AM,77.4,71.2,81,29.82,10.0,South,11.5,-,N/A,Thunderstorm,Overcast,190,2013-04-19 05:15:00
12:35 AM,77.4,70.9,80,29.82,10.0,SSW,11.5,-,N/A,,Overcast,200,2013-04-19 05:35:00
12:55 AM,72.5,63.5,73,29.86,10.0,NNW,25.3,33.4,0.01,Rain-Thunderstorm,Light Thunderstorms and Rain,330,2013-04-19 05:55:00
1:15 AM,62.6,57.9,85,29.86,10.0,North,16.1,26.5,N/A,Rain-Thunderstorm,Light Thunderstorms and Rain,350,2013-04-19 06:15:00
1:55 AM,59.7,56.5,89,29.89,5.0,NNW,12.7,27.6,1.17,Rain-Thunderstorm,Heavy Thunderstorms and Rain,340,2013-04-19 06:55:00
2:15 AM,59.4,55.8,88,29.91,5.0,NW,9.2,20.7,0.12,Rain-Thunderstorm,Heavy Thunderstorms and Rain,320,2013-04-19 07:15:00
2:35 AM,59.0,55.4,88,29.90,7.0,NNW,12.7,-,0.18,Rain-Thunderstorm,Light Thunderstorms and Rain,330,2013-04-19 07:35:00
2:55 AM,58.5,54.1,86,29.92,10.0,North,8.1,24.2,0.18,Rain-Thunderstorm,Rain,350,2013-04-19 07:55:00
3:15 AM,58.1,54.0,86,29.93,7.0,North,10.4,16.1,0.04,Rain,Heavy Rain,360,2013-04-19 08:15:00
3:35 AM,57.2,53.4,87,29.92,10.0,North,12.7,-,0.08,Rain,Light Rain,360,2013-04-19 08:35:00
3:55 AM,57.2,53.1,86,29.94,10.0,NNW,8.1,-,0.09,Rain-Thunderstorm,Light Thunderstorms and Rain,340,2013-04-19 08:55:00
4:15 AM,56.8,52.7,86,29.93,10.0,NNW,8.1,-,0.01,Rain,Light Rain,340,2013-04-19 09:15:00
4:35 AM,56.5,52.3,86,29.95,10.0,NNW,9.2,-,0.01,Rain,Light Rain,330,2013-04-19 09:35:00
4:55 AM,55.8,51.8,87,29.96,10.0,NNW,11.5,18.4,0.02,Rain,Light Rain,330,2013-04-19 09:55:00
5:15 AM,53.6,48.4,82,29.97,10.0,NNW,15.0,23.0,0.01,Rain,Light Rain,340,2013-04-19 10:15:00
5:35 AM,52.7,47.7,83,29.97,10.0,North,16.1,21.9,0.01,,Unknown,350,2013-04-19 10:35:00
5:55 AM,52.0,47.5,85,29.98,10.0,North,15.0,23.0,0.01,Thunderstorm,Unknown,350,2013-04-19 10:55:00
6:15 AM,52.0,47.7,85,29.99,10.0,North,12.7,20.7,N/A,,Unknown,350,2013-04-19 11:15:00
6:35 AM,51.8,47.5,85,30.02,10.0,North,8.1,16.1,N/A,,Unknown,350,2013-04-19 11:35:00
6:55 AM,51.8,45.7,80,30.04,10.0,NNW,15.0,21.9,N/A,,Unknown,340,2013-04-19 11:55:00
7:15 AM,51.1,45.1,80,30.06,10.0,NNW,12.7,25.3,N/A,,Unknown,340,2013-04-19 12:15:00
7:35 AM,51.3,44.8,78,30.08,10.0,NNW,16.1,19.6,N/A,,Unknown,330,2013-04-19 12:35:00
7:55 AM,51.1,44.1,77,30.11,10.0,NNW,11.5,-,N/A,,Unknown,330,2013-04-19 12:55:00
8:15 AM,51.6,43.3,73,30.11,10.0,NNW,11.5,17.3,N/A,,Unknown,330,2013-04-19 13:15:00
8:35 AM,51.1,42.3,72,30.12,10.0,NNW,11.5,17.3,N/A,,Scattered Clouds,340,2013-04-19 13:35:00
8:55 AM,51.8,41.5,68,30.11,10.0,North,13.8,18.4,N/A,,Clear,360,2013-04-19 13:55:00
9:15 AM,50.9,38.7,63,30.14,10.0,North,11.5,21.9,N/A,,Clear,350,2013-04-19 14:15:00
9:35 AM,50.9,38.7,63,30.13,10.0,North,11.5,-,N/A,,Clear,360,2013-04-19 14:35:00
9:55 AM,51.1,39.2,64,30.16,10.0,North,9.2,-,N/A,,Clear,10,2013-04-19 14:55:00
10:35 AM,51.4,40.3,66,30.15,10.0,North,9.2,-,N/A,,Clear,360,2013-04-19 15:35:00
10:55 AM,51.4,40.3,66,30.16,10.0,NNW,5.8,-,N/A,,Scattered Clouds,340,2013-04-19 15:55:00
11:15 AM,52.2,40.6,65,30.13,10.0,North,9.2,-,N/A,,Clear,350,2013-04-19 16:15:00
11:35 AM,51.8,40.3,65,30.16,10.0,North,5.8,-,N/A,,Clear,350,2013-04-19 16:35:00
11:55 AM,52.0,41.4,67,30.14,10.0,North,6.9,-,N/A,,Clear,350,2013-04-19 16:55:00
12:15 PM,53.1,41.7,65,30.13,10.0,NNW,10.4,-,N/A,,Clear,330,2013-04-19 17:15:00
12:35 PM,54.3,41.2,61,30.13,10.0,NW,13.8,18.4,N/A,,Clear,320,2013-04-19 17:35:00
12:55 PM,54.9,42.3,63,30.13,10.0,North,12.7,-,N/A,,Scattered Clouds,360,2013-04-19 17:55:00
1:15 PM,54.5,41.5,62,30.11,10.0,NNW,10.4,13.8,N/A,,Scattered Clouds,340,2013-04-19 18:15:00
1:35 PM,55.0,42.1,62,30.10,10.0,North,15.0,18.4,N/A,,Clear,360,2013-04-19 18:35:00
1:55 PM,54.3,41.9,63,30.10,10.0,North,13.8,19.6,N/A,,Clear,360,2013-04-19 18:55:00
2:15 PM,54.3,42.6,65,30.10,10.0,North,12.7,-,N/A,,Clear,360,2013-04-19 19:15:00
2:35 PM,53.6,42.1,65,30.11,10.0,NNW,8.1,-,N/A,,Clear,340,2013-04-19 19:35:00
2:55 PM,53.8,41.7,64,30.10,10.0,North,10.4,-,N/A,,Clear,350,2013-04-19 19:55:00
3:15 PM,54.3,41.9,63,30.11,10.0,NNW,10.4,-,N/A,,Clear,330,2013-04-19 20:15:00
3:35 PM,55.4,43.2,63,30.10,10.0,NNW,6.9,-,N/A,,Clear,340,2013-04-19 20:35:00
3:55 PM,55.8,42.4,61,30.09,10.0,North,11.5,-,N/A,,Clear,360,2013-04-19 20:55:00
4:15 PM,57.4,42.8,58,30.08,10.0,North,11.5,17.3,N/A,,Clear,360,2013-04-19 21:15:00
4:35 PM,57.9,43.2,58,30.07,10.0,North,11.5,-,N/A,,Clear,360,2013-04-19 21:35:00
4:55 PM,59.4,43.5,56,30.06,10.0,North,10.4,-,N/A,,Clear,350,2013-04-19 21:55:00
5:15 PM,58.6,42.1,54,30.06,10.0,North,5.8,-,N/A,,Clear,360,2013-04-19 22:15:00
5:35 PM,58.8,42.3,54,30.07,10.0,Calm,Calm,-,N/A,,Clear,0,2013-04-19 22:35:00
5:55 PM,59.7,42.6,53,30.08,10.0,North,4.6,-,N/A,,Clear,350,2013-04-19 22:55:00
6:15 PM,58.6,44.1,58,30.08,10.0,North,4.6,-,N/A,,Clear,350,2013-04-19 23:15:00
6:35 PM,60.3,40.5,48,30.10,10.0,North,8.1,-,N/A,,Clear,350,2013-04-19 23:35:00
6:55 PM,58.8,39.2,48,30.11,10.0,NNW,8.1,-,N/A,,Clear,340,2013-04-19 23:55:00
7:15 PM,56.7,40.5,55,30.11,10.0,North,3.5,-,N/A,,Clear,350,2013-04-20 00:15:00
7:35 PM,53.6,42.8,67,30.12,10.0,NNW,5.8,-,N/A,,Clear,340,2013-04-20 00:35:00
7:55 PM,53.2,41.4,64,30.13,10.0,North,5.8,-,N/A,,Clear,350,2013-04-20 00:55:00
8:15 PM,51.8,41.4,68,30.13,10.0,NNW,4.6,-,N/A,,Clear,340,2013-04-20 01:15:00
8:35 PM,50.9,42.4,73,30.15,10.0,Calm,Calm,-,N/A,,Clear,0,2013-04-20 01:35:00
8:55 PM,50.2,42.8,76,30.16,10.0,Calm,Calm,-,N/A,,Clear,0,2013-04-20 01:55:00
9:15 PM,48.7,42.8,80,30.17,10.0,NNW,3.5,-,N/A,,Clear,340,2013-04-20 02:15:00
9:35 PM,48.2,42.3,80,30.18,10.0,North,4.6,-,N/A,,Clear,350,2013-04-20 02:35:00
9:55 PM,48.2,41.9,79,30.18,10.0,North,6.9,-,N/A,,Clear,360,2013-04-20 02:55:00
10:15 PM,48.2,41.0,76,30.18,10.0,North,4.6,-,N/A,,Clear,360,2013-04-20 03:15:00
10:35 PM,48.0,41.0,77,30.19,10.0,Calm,Calm,-,N/A,,Clear,0,2013-04-20 03:35:00
10:55 PM,46.4,41.5,83,30.19,10.0,North,3.5,-,N/A,,Clear,350,2013-04-20 03:55:00
11:15 PM,45.7,41.9,87,30.20,10.0,Calm,Calm,-,N/A,,Clear,0,2013-04-20 04:15:00
11:35 PM,45.9,42.1,87,30.20,10.0,Calm,Calm,-,N/A,,Clear,0,2013-04-20 04:35:00
11:55 PM,44.8,41.5,88,30.21,10.0,NNW,3.5,-,N/A,,Clear,340,2013-04-20 04:55:00